sensor_id;sensor_type;location;lat;lon;timestamp;P1;durP1;ratioP1;P2;durP2;ratioP2
40367;SDS011;26075;43.320;21.920;2023-05-07T00:01:20;7.05;;;4.60;;
40367;SDS011;26075;43.320;21.920;2023-05-07T00:06:22;8.43;;;4.85;;
40367;SDS011;26075;43.320;21.920;2023-05-07T00:11:23;5.40;;;4.45;;
40367;SDS011;26075;43.320;21.920;2023-05-07T00:16:24;6.95;;;3.95;;
40367;SDS011;26075;43.320;21.920;2023-05-07T00:21:25;8.95;;;5.10;;
40367;SDS011;26075;43.320;21.920;2023-05-07T00:26:26;6.45;;;4.47;;
40367;SDS011;26075;43.320;21.920;2023-05-07T00:31:27;5.65;;;4.15;;
40367;SDS011;26075;43.320;21.920;2023-05-07T00:36:28;9.32;;;6.15;;
40367;SDS011;26075;43.320;21.920;2023-05-07T00:41:30;12.15;;;4.13;;
40367;SDS011;26075;43.320;21.920;2023-05-07T00:46:31;9.23;;;5.55;;
40367;SDS011;26075;43.320;21.920;2023-05-07T00:51:33;8.38;;;4.88;;
40367;SDS011;26075;43.320;21.920;2023-05-07T00:56:34;6.22;;;4.10;;
40367;SDS011;26075;43.320;21.920;2023-05-07T01:01:35;6.10;;;4.13;;
40367;SDS011;26075;43.320;21.920;2023-05-07T01:06:36;7.07;;;4.15;;
40367;SDS011;26075;43.320;21.920;2023-05-07T01:11:38;10.20;;;4.50;;
40367;SDS011;26075;43.320;21.920;2023-05-07T01:16:39;8.48;;;4.43;;
40367;SDS011;26075;43.320;21.920;2023-05-07T01:21:43;8.30;;;4.10;;
40367;SDS011;26075;43.320;21.920;2023-05-07T01:26:46;9.43;;;5.67;;
40367;SDS011;26075;43.320;21.920;2023-05-07T01:31:47;6.95;;;4.47;;
40367;SDS011;26075;43.320;21.920;2023-05-07T01:36:50;8.10;;;4.65;;
40367;SDS011;26075;43.320;21.920;2023-05-07T01:41:53;8.57;;;4.53;;
40367;SDS011;26075;43.320;21.920;2023-05-07T01:46:56;7.00;;;4.20;;
40367;SDS011;26075;43.320;21.920;2023-05-07T01:51:58;9.18;;;4.55;;
40367;SDS011;26075;43.320;21.920;2023-05-07T01:56:59;5.75;;;4.00;;
40367;SDS011;26075;43.320;21.920;2023-05-07T02:02:00;8.20;;;3.85;;
40367;SDS011;26075;43.320;21.920;2023-05-07T02:07:02;5.68;;;3.83;;
40367;SDS011;26075;43.320;21.920;2023-05-07T02:12:02;5.40;;;4.32;;
40367;SDS011;26075;43.320;21.920;2023-05-07T02:17:03;5.53;;;3.90;;
40367;SDS011;26075;43.320;21.920;2023-05-07T02:22:05;6.85;;;4.05;;
40367;SDS011;26075;43.320;21.920;2023-05-07T02:27:05;9.13;;;4.00;;
40367;SDS011;26075;43.320;21.920;2023-05-07T02:32:06;8.55;;;4.03;;
40367;SDS011;26075;43.320;21.920;2023-05-07T02:37:07;9.55;;;4.38;;
40367;SDS011;26075;43.320;21.920;2023-05-07T02:42:08;9.75;;;4.55;;
40367;SDS011;26075;43.320;21.920;2023-05-07T02:47:09;6.03;;;4.00;;
40367;SDS011;26075;43.320;21.920;2023-05-07T02:52:10;9.30;;;4.22;;
40367;SDS011;26075;43.320;21.920;2023-05-07T02:57:11;9.85;;;4.53;;
40367;SDS011;26075;43.320;21.920;2023-05-07T03:02:12;6.75;;;4.45;;
40367;SDS011;26075;43.320;21.920;2023-05-07T03:07:13;6.15;;;3.92;;
40367;SDS011;26075;43.320;21.920;2023-05-07T03:12:14;8.38;;;4.10;;
40367;SDS011;26075;43.320;21.920;2023-05-07T03:17:15;8.25;;;4.90;;
40367;SDS011;26075;43.320;21.920;2023-05-07T03:22:16;11.00;;;4.47;;
40367;SDS011;26075;43.320;21.920;2023-05-07T03:27:17;8.20;;;4.28;;
40367;SDS011;26075;43.320;21.920;2023-05-07T03:32:18;7.80;;;3.80;;
40367;SDS011;26075;43.320;21.920;2023-05-07T03:37:20;6.65;;;4.38;;
40367;SDS011;26075;43.320;21.920;2023-05-07T03:42:21;6.88;;;4.20;;
40367;SDS011;26075;43.320;21.920;2023-05-07T03:47:22;6.50;;;4.70;;
40367;SDS011;26075;43.320;21.920;2023-05-07T03:52:24;6.60;;;4.78;;
40367;SDS011;26075;43.320;21.920;2023-05-07T03:57:25;6.43;;;4.88;;
40367;SDS011;26075;43.320;21.920;2023-05-07T04:02:27;7.30;;;4.32;;
40367;SDS011;26075;43.320;21.920;2023-05-07T04:07:27;8.68;;;4.93;;
40367;SDS011;26075;43.320;21.920;2023-05-07T04:12:28;9.77;;;4.78;;
40367;SDS011;26075;43.320;21.920;2023-05-07T04:17:29;12.65;;;6.05;;
40367;SDS011;26075;43.320;21.920;2023-05-07T04:22:30;7.80;;;5.97;;
40367;SDS011;26075;43.320;21.920;2023-05-07T04:27:31;8.27;;;5.10;;
40367;SDS011;26075;43.320;21.920;2023-05-07T04:32:32;8.88;;;5.80;;
40367;SDS011;26075;43.320;21.920;2023-05-07T04:37:33;7.13;;;4.70;;
40367;SDS011;26075;43.320;21.920;2023-05-07T04:42:35;7.40;;;4.82;;
40367;SDS011;26075;43.320;21.920;2023-05-07T04:47:36;8.05;;;4.40;;
40367;SDS011;26075;43.320;21.920;2023-05-07T04:52:38;7.85;;;4.40;;
40367;SDS011;26075;43.320;21.920;2023-05-07T04:57:39;6.53;;;4.60;;
40367;SDS011;26075;43.320;21.920;2023-05-07T05:02:41;6.38;;;4.78;;
40367;SDS011;26075;43.320;21.920;2023-05-07T05:07:42;6.88;;;4.55;;
40367;SDS011;26075;43.320;21.920;2023-05-07T05:12:43;6.65;;;4.70;;
40367;SDS011;26075;43.320;21.920;2023-05-07T05:17:44;7.78;;;5.20;;
40367;SDS011;26075;43.320;21.920;2023-05-07T05:22:45;8.88;;;4.95;;
40367;SDS011;26075;43.320;21.920;2023-05-07T05:27:46;7.20;;;5.05;;
40367;SDS011;26075;43.320;21.920;2023-05-07T05:32:47;9.35;;;5.80;;
40367;SDS011;26075;43.320;21.920;2023-05-07T05:37:48;10.18;;;5.95;;
40367;SDS011;26075;43.320;21.920;2023-05-07T05:42:49;15.68;;;6.60;;
40367;SDS011;26075;43.320;21.920;2023-05-07T05:47:50;11.98;;;6.80;;
40367;SDS011;26075;43.320;21.920;2023-05-07T05:52:51;14.80;;;6.57;;
40367;SDS011;26075;43.320;21.920;2023-05-07T05:57:52;14.20;;;6.07;;
40367;SDS011;26075;43.320;21.920;2023-05-07T06:02:53;11.55;;;5.80;;
40367;SDS011;26075;43.320;21.920;2023-05-07T06:07:54;9.20;;;5.38;;
40367;SDS011;26075;43.320;21.920;2023-05-07T06:12:55;6.75;;;4.93;;
40367;SDS011;26075;43.320;21.920;2023-05-07T06:17:56;9.50;;;5.78;;
40367;SDS011;26075;43.320;21.920;2023-05-07T06:22:58;8.75;;;5.72;;
40367;SDS011;26075;43.320;21.920;2023-05-07T06:27:58;7.93;;;5.65;;
40367;SDS011;26075;43.320;21.920;2023-05-07T06:32:59;10.48;;;6.00;;
40367;SDS011;26075;43.320;21.920;2023-05-07T06:38:00;11.23;;;6.18;;
40367;SDS011;26075;43.320;21.920;2023-05-07T06:43:01;9.32;;;5.85;;
40367;SDS011;26075;43.320;21.920;2023-05-07T06:48:02;9.40;;;5.90;;
40367;SDS011;26075;43.320;21.920;2023-05-07T06:53:03;10.43;;;6.40;;
40367;SDS011;26075;43.320;21.920;2023-05-07T06:58:04;9.30;;;6.75;;
40367;SDS011;26075;43.320;21.920;2023-05-07T07:03:06;10.63;;;5.78;;
40367;SDS011;26075;43.320;21.920;2023-05-07T07:08:07;9.00;;;5.57;;
40367;SDS011;26075;43.320;21.920;2023-05-07T07:13:07;8.75;;;4.32;;
40367;SDS011;26075;43.320;21.920;2023-05-07T07:18:08;9.38;;;4.72;;
40367;SDS011;26075;43.320;21.920;2023-05-07T07:23:09;7.70;;;4.75;;
40367;SDS011;26075;43.320;21.920;2023-05-07T07:28:09;6.97;;;4.75;;
40367;SDS011;26075;43.320;21.920;2023-05-07T07:33:11;7.90;;;4.93;;
40367;SDS011;26075;43.320;21.920;2023-05-07T07:38:12;7.40;;;4.75;;
40367;SDS011;26075;43.320;21.920;2023-05-07T07:43:12;8.98;;;5.03;;
40367;SDS011;26075;43.320;21.920;2023-05-07T07:48:14;8.80;;;4.35;;
40367;SDS011;26075;43.320;21.920;2023-05-07T07:53:15;11.27;;;5.38;;
40367;SDS011;26075;43.320;21.920;2023-05-07T07:58:15;8.18;;;4.95;;
40367;SDS011;26075;43.320;21.920;2023-05-07T08:03:16;7.65;;;4.90;;
40367;SDS011;26075;43.320;21.920;2023-05-07T08:08:17;8.70;;;4.65;;
40367;SDS011;26075;43.320;21.920;2023-05-07T08:13:18;8.10;;;4.40;;
40367;SDS011;26075;43.320;21.920;2023-05-07T08:18:19;8.25;;;5.05;;
40367;SDS011;26075;43.320;21.920;2023-05-07T08:23:20;12.55;;;4.35;;
40367;SDS011;26075;43.320;21.920;2023-05-07T08:28:21;7.82;;;4.70;;
40367;SDS011;26075;43.320;21.920;2023-05-07T08:33:22;7.55;;;3.95;;
40367;SDS011;26075;43.320;21.920;2023-05-07T08:38:22;9.73;;;4.05;;
40367;SDS011;26075;43.320;21.920;2023-05-07T08:43:24;11.27;;;4.97;;
40367;SDS011;26075;43.320;21.920;2023-05-07T08:48:27;7.30;;;4.10;;
40367;SDS011;26075;43.320;21.920;2023-05-07T08:53:31;5.18;;;4.10;;
40367;SDS011;26075;43.320;21.920;2023-05-07T08:58:33;9.32;;;4.57;;
40367;SDS011;26075;43.320;21.920;2023-05-07T09:03:33;10.63;;;4.30;;
40367;SDS011;26075;43.320;21.920;2023-05-07T09:08:34;5.38;;;4.30;;
40367;SDS011;26075;43.320;21.920;2023-05-07T09:13:36;7.10;;;4.50;;
40367;SDS011;26075;43.320;21.920;2023-05-07T09:18:44;6.05;;;4.65;;
40367;SDS011;26075;43.320;21.920;2023-05-07T09:23:45;9.25;;;5.60;;
40367;SDS011;26075;43.320;21.920;2023-05-07T09:28:45;9.50;;;6.40;;
40367;SDS011;26075;43.320;21.920;2023-05-07T09:33:46;13.13;;;5.57;;
40367;SDS011;26075;43.320;21.920;2023-05-07T09:38:47;10.82;;;5.70;;
40367;SDS011;26075;43.320;21.920;2023-05-07T09:43:53;11.73;;;5.70;;
40367;SDS011;26075;43.320;21.920;2023-05-07T09:48:54;6.07;;;4.70;;
40367;SDS011;26075;43.320;21.920;2023-05-07T09:53:57;6.63;;;4.90;;
40367;SDS011;26075;43.320;21.920;2023-05-07T09:59:03;8.25;;;4.57;;
40367;SDS011;26075;43.320;21.920;2023-05-07T10:04:05;8.05;;;5.35;;
40367;SDS011;26075;43.320;21.920;2023-05-07T10:09:08;6.38;;;4.90;;
40367;SDS011;26075;43.320;21.920;2023-05-07T10:14:09;9.43;;;4.53;;
40367;SDS011;26075;43.320;21.920;2023-05-07T10:19:10;6.70;;;4.82;;
40367;SDS011;26075;43.320;21.920;2023-05-07T10:24:16;10.27;;;5.63;;
40367;SDS011;26075;43.320;21.920;2023-05-07T10:29:30;6.50;;;4.18;;
40367;SDS011;26075;43.320;21.920;2023-05-07T10:34:43;7.32;;;4.82;;
40367;SDS011;26075;43.320;21.920;2023-05-07T10:39:47;9.03;;;4.33;;
40367;SDS011;26075;43.320;21.920;2023-05-07T10:44:48;7.88;;;4.47;;
40367;SDS011;26075;43.320;21.920;2023-05-07T10:55:23;7.70;;;4.35;;
40367;SDS011;26075;43.320;21.920;2023-05-07T11:05:31;7.88;;;3.95;;
40367;SDS011;26075;43.320;21.920;2023-05-07T11:11:06;7.07;;;4.68;;
40367;SDS011;26075;43.320;21.920;2023-05-07T11:16:00;6.15;;;4.40;;
40367;SDS011;26075;43.320;21.920;2023-05-07T11:21:01;6.70;;;4.20;;
40367;SDS011;26075;43.320;21.920;2023-05-07T11:26:06;13.45;;;5.10;;
40367;SDS011;26075;43.320;21.920;2023-05-07T11:31:09;9.30;;;3.55;;
40367;SDS011;26075;43.320;21.920;2023-05-07T11:36:11;6.72;;;4.05;;
40367;SDS011;26075;43.320;21.920;2023-05-07T11:41:12;6.90;;;4.00;;
40367;SDS011;26075;43.320;21.920;2023-05-07T11:46:14;5.43;;;3.90;;
40367;SDS011;26075;43.320;21.920;2023-05-07T11:51:18;8.85;;;4.15;;
40367;SDS011;26075;43.320;21.920;2023-05-07T11:56:20;4.88;;;3.75;;
40367;SDS011;26075;43.320;21.920;2023-05-07T12:01:21;4.78;;;3.22;;
40367;SDS011;26075;43.320;21.920;2023-05-07T12:06:22;5.97;;;3.58;;
40367;SDS011;26075;43.320;21.920;2023-05-07T12:11:24;6.18;;;3.28;;
40367;SDS011;26075;43.320;21.920;2023-05-07T12:16:26;5.65;;;3.38;;
40367;SDS011;26075;43.320;21.920;2023-05-07T12:21:27;6.75;;;3.85;;
40367;SDS011;26075;43.320;21.920;2023-05-07T12:26:28;5.80;;;3.40;;
40367;SDS011;26075;43.320;21.920;2023-05-07T12:31:29;7.53;;;3.92;;
40367;SDS011;26075;43.320;21.920;2023-05-07T12:36:39;8.80;;;3.90;;
40367;SDS011;26075;43.320;21.920;2023-05-07T12:41:56;7.60;;;3.78;;
40367;SDS011;26075;43.320;21.920;2023-05-07T12:47:01;6.32;;;3.50;;
40367;SDS011;26075;43.320;21.920;2023-05-07T12:52:02;5.80;;;4.20;;
40367;SDS011;26075;43.320;21.920;2023-05-07T12:57:04;10.80;;;4.00;;
40367;SDS011;26075;43.320;21.920;2023-05-07T13:02:06;7.18;;;3.67;;
40367;SDS011;26075;43.320;21.920;2023-05-07T13:07:08;8.82;;;3.92;;
40367;SDS011;26075;43.320;21.920;2023-05-07T13:12:08;6.43;;;3.88;;
40367;SDS011;26075;43.320;21.920;2023-05-07T13:17:09;6.60;;;3.13;;
40367;SDS011;26075;43.320;21.920;2023-05-07T13:22:10;6.57;;;3.95;;
40367;SDS011;26075;43.320;21.920;2023-05-07T13:27:11;4.68;;;3.05;;
40367;SDS011;26075;43.320;21.920;2023-05-07T13:32:11;6.00;;;3.20;;
40367;SDS011;26075;43.320;21.920;2023-05-07T13:37:12;6.60;;;3.72;;
40367;SDS011;26075;43.320;21.920;2023-05-07T13:42:13;6.45;;;3.63;;
40367;SDS011;26075;43.320;21.920;2023-05-07T13:47:13;6.28;;;3.30;;
40367;SDS011;26075;43.320;21.920;2023-05-07T13:52:14;8.32;;;3.53;;
40367;SDS011;26075;43.320;21.920;2023-05-07T13:57:16;6.20;;;3.67;;
40367;SDS011;26075;43.320;21.920;2023-05-07T14:02:16;6.28;;;3.47;;
40367;SDS011;26075;43.320;21.920;2023-05-07T14:07:17;6.88;;;3.90;;
40367;SDS011;26075;43.320;21.920;2023-05-07T14:12:18;6.97;;;3.70;;
40367;SDS011;26075;43.320;21.920;2023-05-07T14:17:18;4.68;;;3.30;;
40367;SDS011;26075;43.320;21.920;2023-05-07T14:22:20;5.47;;;3.22;;
40367;SDS011;26075;43.320;21.920;2023-05-07T14:27:22;5.65;;;3.38;;
40367;SDS011;26075;43.320;21.920;2023-05-07T14:32:23;5.15;;;3.58;;
40367;SDS011;26075;43.320;21.920;2023-05-07T14:37:23;9.88;;;3.38;;
40367;SDS011;26075;43.320;21.920;2023-05-07T14:42:24;5.40;;;3.55;;
40367;SDS011;26075;43.320;21.920;2023-05-07T14:47:25;7.07;;;3.40;;
40367;SDS011;26075;43.320;21.920;2023-05-07T14:52:26;5.40;;;3.03;;
40367;SDS011;26075;43.320;21.920;2023-05-07T14:57:27;8.38;;;3.67;;
40367;SDS011;26075;43.320;21.920;2023-05-07T15:02:28;6.95;;;3.13;;
40367;SDS011;26075;43.320;21.920;2023-05-07T15:07:29;7.65;;;3.63;;
40367;SDS011;26075;43.320;21.920;2023-05-07T15:12:32;8.52;;;4.72;;
40367;SDS011;26075;43.320;21.920;2023-05-07T15:17:33;6.35;;;3.40;;
40367;SDS011;26075;43.320;21.920;2023-05-07T15:22:34;5.35;;;3.72;;
40367;SDS011;26075;43.320;21.920;2023-05-07T15:27:37;8.57;;;3.53;;
40367;SDS011;26075;43.320;21.920;2023-05-07T15:32:37;7.50;;;3.50;;
40367;SDS011;26075;43.320;21.920;2023-05-07T15:37:38;7.10;;;3.33;;
40367;SDS011;26075;43.320;21.920;2023-05-07T15:42:39;6.75;;;3.42;;
40367;SDS011;26075;43.320;21.920;2023-05-07T15:47:40;6.22;;;3.70;;
40367;SDS011;26075;43.320;21.920;2023-05-07T15:52:41;8.43;;;3.55;;
40367;SDS011;26075;43.320;21.920;2023-05-07T15:57:42;7.75;;;3.40;;
40367;SDS011;26075;43.320;21.920;2023-05-07T16:02:42;7.03;;;3.95;;
40367;SDS011;26075;43.320;21.920;2023-05-07T16:07:43;5.57;;;3.40;;
40367;SDS011;26075;43.320;21.920;2023-05-07T16:12:44;9.85;;;4.93;;
40367;SDS011;26075;43.320;21.920;2023-05-07T16:17:46;7.57;;;3.28;;
40367;SDS011;26075;43.320;21.920;2023-05-07T16:22:48;7.88;;;4.07;;
40367;SDS011;26075;43.320;21.920;2023-05-07T16:27:49;8.85;;;3.45;;
40367;SDS011;26075;43.320;21.920;2023-05-07T16:32:50;6.60;;;3.75;;
40367;SDS011;26075;43.320;21.920;2023-05-07T16:37:50;6.82;;;3.42;;
40367;SDS011;26075;43.320;21.920;2023-05-07T16:42:52;9.50;;;4.57;;
40367;SDS011;26075;43.320;21.920;2023-05-07T16:47:53;10.68;;;5.50;;
40367;SDS011;26075;43.320;21.920;2023-05-07T16:52:54;9.30;;;4.15;;
40367;SDS011;26075;43.320;21.920;2023-05-07T16:57:54;5.85;;;3.80;;
40367;SDS011;26075;43.320;21.920;2023-05-07T17:02:55;10.30;;;4.28;;
40367;SDS011;26075;43.320;21.920;2023-05-07T17:07:56;5.55;;;3.58;;
40367;SDS011;26075;43.320;21.920;2023-05-07T17:12:57;6.50;;;3.83;;
40367;SDS011;26075;43.320;21.920;2023-05-07T17:17:57;7.55;;;3.60;;
40367;SDS011;26075;43.320;21.920;2023-05-07T17:22:58;7.82;;;4.65;;
40367;SDS011;26075;43.320;21.920;2023-05-07T17:27:59;9.38;;;4.45;;
40367;SDS011;26075;43.320;21.920;2023-05-07T17:32:59;11.43;;;4.55;;
40367;SDS011;26075;43.320;21.920;2023-05-07T17:38:01;14.27;;;6.10;;
40367;SDS011;26075;43.320;21.920;2023-05-07T17:43:02;11.93;;;6.22;;
40367;SDS011;26075;43.320;21.920;2023-05-07T17:48:03;9.60;;;5.47;;
40367;SDS011;26075;43.320;21.920;2023-05-07T17:53:04;17.02;;;8.63;;
40367;SDS011;26075;43.320;21.920;2023-05-07T17:58:05;11.52;;;6.68;;
40367;SDS011;26075;43.320;21.920;2023-05-07T18:03:06;11.95;;;8.32;;
40367;SDS011;26075;43.320;21.920;2023-05-07T18:08:07;14.98;;;9.05;;
40367;SDS011;26075;43.320;21.920;2023-05-07T18:13:08;17.33;;;11.55;;
40367;SDS011;26075;43.320;21.920;2023-05-07T18:18:08;11.32;;;7.35;;
40367;SDS011;26075;43.320;21.920;2023-05-07T18:23:09;15.57;;;7.95;;
40367;SDS011;26075;43.320;21.920;2023-05-07T18:28:10;7.88;;;5.72;;
40367;SDS011;26075;43.320;21.920;2023-05-07T18:33:11;17.35;;;6.15;;
40367;SDS011;26075;43.320;21.920;2023-05-07T18:38:12;10.13;;;5.35;;
40367;SDS011;26075;43.320;21.920;2023-05-07T18:43:13;9.70;;;4.55;;
40367;SDS011;26075;43.320;21.920;2023-05-07T18:48:14;7.85;;;4.65;;
40367;SDS011;26075;43.320;21.920;2023-05-07T18:53:15;8.85;;;5.47;;
40367;SDS011;26075;43.320;21.920;2023-05-07T18:58:16;9.05;;;6.10;;
40367;SDS011;26075;43.320;21.920;2023-05-07T19:03:18;10.23;;;5.75;;
40367;SDS011;26075;43.320;21.920;2023-05-07T19:08:19;12.93;;;5.30;;
40367;SDS011;26075;43.320;21.920;2023-05-07T19:13:20;11.02;;;7.20;;
40367;SDS011;26075;43.320;21.920;2023-05-07T19:18:22;14.57;;;7.03;;
40367;SDS011;26075;43.320;21.920;2023-05-07T19:23:23;11.65;;;7.70;;
40367;SDS011;26075;43.320;21.920;2023-05-07T19:28:23;9.13;;;4.38;;
40367;SDS011;26075;43.320;21.920;2023-05-07T19:33:25;8.10;;;4.50;;
40367;SDS011;26075;43.320;21.920;2023-05-07T19:38:28;7.88;;;4.40;;
40367;SDS011;26075;43.320;21.920;2023-05-07T19:43:29;9.77;;;4.70;;
40367;SDS011;26075;43.320;21.920;2023-05-07T19:48:35;9.10;;;5.55;;
40367;SDS011;26075;43.320;21.920;2023-05-07T19:53:35;10.52;;;6.20;;
40367;SDS011;26075;43.320;21.920;2023-05-07T19:58:36;11.73;;;6.20;;
40367;SDS011;26075;43.320;21.920;2023-05-07T20:03:38;11.82;;;5.47;;
40367;SDS011;26075;43.320;21.920;2023-05-07T20:08:38;11.98;;;5.78;;
40367;SDS011;26075;43.320;21.920;2023-05-07T20:13:39;9.80;;;6.05;;
40367;SDS011;26075;43.320;21.920;2023-05-07T20:18:40;9.25;;;5.50;;
40367;SDS011;26075;43.320;21.920;2023-05-07T20:23:41;8.55;;;5.32;;
40367;SDS011;26075;43.320;21.920;2023-05-07T20:28:41;10.15;;;6.18;;
40367;SDS011;26075;43.320;21.920;2023-05-07T20:33:42;11.90;;;5.97;;
40367;SDS011;26075;43.320;21.920;2023-05-07T20:38:43;11.13;;;6.97;;
40367;SDS011;26075;43.320;21.920;2023-05-07T20:43:44;12.43;;;7.03;;
40367;SDS011;26075;43.320;21.920;2023-05-07T20:48:44;10.95;;;6.68;;
40367;SDS011;26075;43.320;21.920;2023-05-07T20:53:45;13.23;;;6.50;;
40367;SDS011;26075;43.320;21.920;2023-05-07T20:58:46;16.70;;;6.70;;
40367;SDS011;26075;43.320;21.920;2023-05-07T21:03:47;10.77;;;6.70;;
40367;SDS011;26075;43.320;21.920;2023-05-07T21:08:49;12.85;;;6.93;;
40367;SDS011;26075;43.320;21.920;2023-05-07T21:13:49;10.38;;;6.80;;
40367;SDS011;26075;43.320;21.920;2023-05-07T21:18:50;10.48;;;6.43;;
40367;SDS011;26075;43.320;21.920;2023-05-07T21:23:51;10.52;;;6.95;;
40367;SDS011;26075;43.320;21.920;2023-05-07T21:28:52;12.32;;;7.75;;
40367;SDS011;26075;43.320;21.920;2023-05-07T21:33:53;14.77;;;9.45;;
40367;SDS011;26075;43.320;21.920;2023-05-07T21:38:56;16.67;;;11.00;;
40367;SDS011;26075;43.320;21.920;2023-05-07T21:43:57;12.05;;;9.43;;
40367;SDS011;26075;43.320;21.920;2023-05-07T21:48:57;13.25;;;8.35;;
40367;SDS011;26075;43.320;21.920;2023-05-07T21:53:58;16.10;;;8.35;;
40367;SDS011;26075;43.320;21.920;2023-05-07T21:58:59;13.68;;;8.63;;
40367;SDS011;26075;43.320;21.920;2023-05-07T22:04:01;15.55;;;7.95;;
40367;SDS011;26075;43.320;21.920;2023-05-07T22:09:03;13.45;;;7.22;;
40367;SDS011;26075;43.320;21.920;2023-05-07T22:14:04;13.70;;;8.05;;
40367;SDS011;26075;43.320;21.920;2023-05-07T22:19:05;10.77;;;6.95;;
40367;SDS011;26075;43.320;21.920;2023-05-07T22:24:06;11.73;;;7.38;;
40367;SDS011;26075;43.320;21.920;2023-05-07T22:29:07;9.85;;;6.80;;
40367;SDS011;26075;43.320;21.920;2023-05-07T22:34:08;9.90;;;6.78;;
40367;SDS011;26075;43.320;21.920;2023-05-07T22:39:09;9.63;;;7.55;;
40367;SDS011;26075;43.320;21.920;2023-05-07T22:44:10;11.45;;;6.57;;
40367;SDS011;26075;43.320;21.920;2023-05-07T22:49:10;9.40;;;5.72;;
40367;SDS011;26075;43.320;21.920;2023-05-07T22:54:11;8.57;;;6.30;;
40367;SDS011;26075;43.320;21.920;2023-05-07T22:59:12;8.73;;;6.10;;
40367;SDS011;26075;43.320;21.920;2023-05-07T23:04:12;9.43;;;6.32;;
40367;SDS011;26075;43.320;21.920;2023-05-07T23:09:13;10.13;;;6.53;;
40367;SDS011;26075;43.320;21.920;2023-05-07T23:14:14;12.25;;;8.05;;
40367;SDS011;26075;43.320;21.920;2023-05-07T23:19:15;13.85;;;6.97;;
40367;SDS011;26075;43.320;21.920;2023-05-07T23:24:16;13.02;;;6.32;;
40367;SDS011;26075;43.320;21.920;2023-05-07T23:29:17;8.90;;;6.55;;
40367;SDS011;26075;43.320;21.920;2023-05-07T23:34:17;14.60;;;9.23;;
40367;SDS011;26075;43.320;21.920;2023-05-07T23:39:22;12.07;;;7.15;;
40367;SDS011;26075;43.320;21.920;2023-05-07T23:44:23;9.40;;;6.78;;
40367;SDS011;26075;43.320;21.920;2023-05-07T23:49:24;9.85;;;7.25;;
40367;SDS011;26075;43.320;21.920;2023-05-07T23:54:24;12.57;;;6.78;;
40367;SDS011;26075;43.320;21.920;2023-05-07T23:59:25;10.57;;;7.05;;
